Time;durP1;ratioP1;P1;durP2;ratioP2;P2;SDS_P1;SDS_P2;PMS_P1;PMS_P2;Temp;Humidity;BMP_temperature;BMP_pressure;BME280_temperature;BME280_humidity;BME280_pressure;Samples;Min_cycle;Max_cycle;Signal;HPM_P1;HPM_P2
2022/05/10 00:02:03;;;;;;;5.97;2.42;;;;;;;;;;5008469;28;20054;-63
2022/05/10 00:04:30;;;;;;;9.73;3.15;;;;;;;;;;4991534;28;20109;-63
2022/05/10 00:06:57;;;;;;;7.57;3.45;;;;;;;;;;4993048;28;20050;-63
2022/05/10 00:09:27;;;;;;;7.38;3.42;;;;;;;;;;5011401;28;20057;-65
2022/05/10 00:11:54;;;;;;;7.20;3.08;;;;;;;;;;5008098;28;20041;-63
2022/05/10 00:14:21;;;;;;;7.00;3.35;;;;;;;;;;5012739;28;20057;-63
2022/05/10 00:16:51;;;;;;;7.50;2.90;;;;;;;;;;5006766;28;20080;-62
2022/05/10 00:19:18;;;;;;;9.15;3.53;;;;;;;;;;5031516;28;20045;-65
2022/05/10 00:21:46;;;;;;;8.50;3.50;;;;;;;;;;5026767;28;20055;-62
2022/05/10 00:24:13;;;;;;;10.65;3.60;;;;;;;;;;5008662;28;20064;-63
2022/05/10 00:26:39;;;;;;;6.28;3.03;;;;;;;;;;5010739;28;20107;-63
2022/05/10 00:29:07;;;;;;;8.32;3.38;;;;;;;;;;5021738;28;20052;-62
2022/05/10 00:31:35;;;;;;;9.77;3.00;;;;;;;;;;5030899;28;20049;-64
2022/05/10 00:34:03;;;;;;;8.00;2.42;;;;;;;;;;5025198;28;20053;-63
2022/05/10 00:36:31;;;;;;;7.45;3.28;;;;;;;;;;5031150;28;20053;-63
2022/05/10 00:38:59;;;;;;;6.53;3.00;;;;;;;;;;5012820;28;20049;-63
2022/05/10 00:41:28;;;;;;;4.60;2.40;;;;;;;;;;5010528;28;20053;-62
2022/05/10 00:43:58;;;;;;;9.35;3.60;;;;;;;;;;5005009;28;20054;-63
2022/05/10 00:46:27;;;;;;;5.70;2.70;;;;;;;;;;5010896;28;20099;-62
2022/05/10 00:48:58;;;;;;;8.73;2.90;;;;;;;;;;5013548;28;20138;-64
2022/05/10 00:51:33;;;;;;;9.52;3.25;;;;;;;;;;5030183;28;20065;-62
2022/05/10 00:54:01;;;;;;;5.97;2.92;;;;;;;;;;5014589;28;20054;-63
2022/05/10 00:56:34;;;;;;;8.35;3.58;;;;;;;;;;4999297;28;20073;-62
2022/05/10 00:59:04;;;;;;;7.25;3.65;;;;;;;;;;5002428;28;20108;-63
2022/05/10 01:01:31;;;;;;;9.15;3.53;;;;;;;;;;5012760;28;20072;-62
2022/05/10 01:04:02;;;;;;;7.28;3.08;;;;;;;;;;5019059;28;20077;-63
2022/05/10 01:06:33;;;;;;;6.03;2.67;;;;;;;;;;5055292;28;20053;-62
2022/05/10 01:09:02;;;;;;;7.30;3.22;;;;;;;;;;5024005;28;20069;-63
2022/05/10 01:11:31;;;;;;;9.32;3.58;;;;;;;;;;5030127;28;20071;-62
2022/05/10 01:14:00;;;;;;;8.27;3.17;;;;;;;;;;5024746;28;20058;-62
2022/05/10 01:16:28;;;;;;;8.18;3.50;;;;;;;;;;5030381;28;20055;-62
2022/05/10 01:18:55;;;;;;;10.90;3.65;;;;;;;;;;5029935;28;20053;-62
2022/05/10 01:21:44;;;;;;;7.03;3.15;;;;;;;;;;5023962;28;20052;-62
2022/05/10 01:24:21;;;;;;;8.75;3.15;;;;;;;;;;5043000;28;20067;-63
2022/05/10 01:26:53;;;;;;;8.35;3.63;;;;;;;;;;5010733;28;20091;-62
2022/05/10 01:29:24;;;;;;;8.07;3.42;;;;;;;;;;5013199;28;20057;-65
2022/05/10 01:33:29;;;;;;;11.25;3.25;;;;;;;;;;5031396;28;20065;-62
2022/05/10 01:34:39;;;;;;;6.95;3.35;;;;;;;;;;5026444;28;20052;-62
2022/05/10 01:37:08;;;;;;;7.90;3.20;;;;;;;;;;5024189;28;20053;-62
2022/05/10 01:39:36;;;;;;;10.25;3.97;;;;;;;;;;5048583;28;20132;-62
2022/05/10 01:42:06;;;;;;;6.90;3.45;;;;;;;;;;5027218;28;20049;-65
2022/05/10 01:44:35;;;;;;;8.63;4.43;;;;;;;;;;5048909;28;20109;-62
2022/05/10 01:47:06;;;;;;;8.77;4.07;;;;;;;;;;5026916;28;20085;-64
2022/05/10 01:49:36;;;;;;;8.15;3.97;;;;;;;;;;5032441;28;20049;-62
2022/05/10 01:52:06;;;;;;;9.82;3.67;;;;;;;;;;5027290;28;20057;-63
2022/05/10 01:54:47;;;;;;;9.52;4.05;;;;;;;;;;5032636;28;20048;-62
2022/05/10 01:57:15;;;;;;;8.35;3.95;;;;;;;;;;5023516;28;20053;-65
2022/05/10 01:59:46;;;;;;;11.57;3.70;;;;;;;;;;5032167;28;20130;-63
2022/05/10 02:02:15;;;;;;;6.90;3.15;;;;;;;;;;5022373;28;20056;-65
2022/05/10 02:04:43;;;;;;;8.00;4.10;;;;;;;;;;5032823;28;20056;-63
2022/05/10 02:07:14;;;;;;;6.78;3.10;;;;;;;;;;5026140;28;20107;-62
2022/05/10 02:09:46;;;;;;;6.53;3.08;;;;;;;;;;5033008;28;20077;-63
2022/05/10 02:12:14;;;;;;;9.30;4.10;;;;;;;;;;5029194;28;20045;-64
2022/05/10 02:14:43;;;;;;;12.32;4.93;;;;;;;;;;5035136;28;20064;-63
2022/05/10 02:17:14;;;;;;;10.73;4.95;;;;;;;;;;5028912;28;20052;-62
2022/05/10 02:19:45;;;;;;;12.23;5.38;;;;;;;;;;5032753;28;20057;-62
2022/05/10 02:22:14;;;;;;;11.45;4.88;;;;;;;;;;5026126;28;20112;-62
2022/05/10 02:24:43;;;;;;;8.05;3.47;;;;;;;;;;5032464;28;20060;-62
2022/05/10 02:27:09;;;;;;;;;;;;;;;;;;5027004;28;20069;-62
2022/05/10 02:29:40;;;;;;;12.23;5.28;;;;;;;;;;5064965;28;19964;-64
2022/05/10 02:34:55;;;;;;;12.93;6.20;;;;;;;;;;5032208;28;20139;-62
2022/05/10 02:37:22;;;;;;;10.48;4.93;;;;;;;;;;5042181;28;20171;-62
2022/05/10 02:39:49;;;;;;;12.27;5.60;;;;;;;;;;5031208;28;20045;-63
2022/05/10 02:42:17;;;;;;;15.93;6.32;;;;;;;;;;5027549;28;20052;-62
2022/05/10 02:44:44;;;;;;;;;;;;;;;;;;5012660;28;20060;-62
2022/05/10 02:47:11;;;;;;;16.83;7.20;;;;;;;;;;5026127;28;19933;-62
2022/05/10 02:49:40;;;;;;;12.80;5.50;;;;;;;;;;5040095;28;20037;-63
2022/05/10 02:52:09;;;;;;;12.18;4.45;;;;;;;;;;5064175;28;20061;-64
2022/05/10 02:54:35;;;;;;;14.05;6.45;;;;;;;;;;5025224;28;20106;-63
2022/05/10 02:57:03;;;;;;;11.65;4.78;;;;;;;;;;5064391;28;20056;-62
2022/05/10 02:59:31;;;;;;;11.20;5.85;;;;;;;;;;5024706;28;20053;-61
2022/05/10 03:02:00;;;;;;;10.45;5.68;;;;;;;;;;5030300;28;20114;-62
2022/05/10 03:04:33;;;;;;;11.35;5.20;;;;;;;;;;5025667;28;20071;-63
2022/05/10 03:06:59;;;;;;;14.05;7.03;;;;;;;;;;5031349;28;20056;-61
2022/05/10 03:09:28;;;;;;;12.88;6.65;;;;;;;;;;5025047;28;20088;-62
2022/05/10 03:11:54;;;;;;;11.68;5.25;;;;;;;;;;5031249;28;20139;-62
2022/05/10 03:14:21;;;;;;;15.00;7.63;;;;;;;;;;5026144;28;20065;-61
2022/05/10 03:16:47;;;;;;;7.40;3.72;;;;;;;;;;5031197;28;20060;-63
2022/05/10 03:19:16;;;;;;;14.20;6.68;;;;;;;;;;5025533;28;20079;-62
2022/05/10 03:21:42;;;;;;;;;;;;;;;;;;5031657;28;20064;-61
2022/05/10 03:24:09;;;;;;;11.13;4.85;;;;;;;;;;5043258;28;19943;-61
2022/05/10 03:26:38;;;;;;;10.48;4.95;;;;;;;;;;5030801;28;20126;-62
2022/05/10 03:29:06;;;;;;;21.15;7.72;;;;;;;;;;5059510;28;20040;-63
2022/05/10 03:31:32;;;;;;;13.20;6.13;;;;;;;;;;5029650;28;20052;-62
2022/05/10 03:36:43;;;;;;;21.45;9.18;;;;;;;;;;5046830;28;20056;-62
2022/05/10 03:39:09;;;;;;;14.88;7.38;;;;;;;;;;5031616;28;20053;-61
2022/05/10 03:41:37;;;;;;;10.93;5.38;;;;;;;;;;5025401;28;20066;-64
2022/05/10 03:44:04;;;;;;;13.23;5.95;;;;;;;;;;5030954;28;20072;-64
2022/05/10 03:46:31;;;;;;;15.27;7.65;;;;;;;;;;5026590;28;20081;-62
2022/05/10 03:48:58;;;;;;;13.63;6.60;;;;;;;;;;5032123;28;20111;-62
2022/05/10 03:51:25;;;;;;;10.30;4.75;;;;;;;;;;5010538;28;20057;-61
2022/05/10 03:53:51;;;;;;;18.10;8.77;;;;;;;;;;5033574;28;20152;-62
2022/05/10 03:56:18;;;;;;;9.77;5.03;;;;;;;;;;5059278;28;20064;-63
2022/05/10 03:58:46;;;;;;;12.48;6.75;;;;;;;;;;5031467;28;20049;-63
2022/05/10 04:01:12;;;;;;;25.92;8.32;;;;;;;;;;5024429;28;20201;-64
2022/05/10 04:03:39;;;;;;;15.50;6.80;;;;;;;;;;5033142;28;20049;-63
2022/05/10 04:06:06;;;;;;;15.63;6.20;;;;;;;;;;5018775;28;20065;-62
2022/05/10 04:08:33;;;;;;;11.63;5.15;;;;;;;;;;5064051;28;20138;-62
2022/05/10 04:11:02;;;;;;;16.85;8.10;;;;;;;;;;5054774;28;20061;-64
2022/05/10 04:13:28;;;;;;;10.18;5.07;;;;;;;;;;5022045;28;20049;-62
2022/05/10 04:15:57;;;;;;;24.10;9.43;;;;;;;;;;5011603;28;20049;-62
2022/05/10 04:18:23;;;;;;;;;;;;;;;;;;5038343;28;20059;-63
2022/05/10 04:20:50;;;;;;;12.63;6.70;;;;;;;;;;5020583;28;19931;-63
2022/05/10 04:23:17;;;;;;;13.73;7.15;;;;;;;;;;5057972;28;20045;-62
2022/05/10 04:25:44;;;;;;;18.65;8.80;;;;;;;;;;5069567;28;20057;-63
2022/05/10 04:28:11;;;;;;;24.48;10.30;;;;;;;;;;5021011;28;20059;-64
2022/05/10 04:30:38;;;;;;;22.83;10.20;;;;;;;;;;5022366;28;20057;-62
2022/05/10 04:33:06;;;;;;;21.67;9.73;;;;;;;;;;5028530;28;20124;-61
2022/05/10 04:35:33;;;;;;;11.00;5.18;;;;;;;;;;5040445;28;20049;-62
2022/05/10 04:38:01;;;;;;;21.67;8.48;;;;;;;;;;5017835;28;20068;-61
2022/05/10 04:43:13;;;;;;;22.10;10.32;;;;;;;;;;5056424;28;20089;-63
2022/05/10 04:45:40;;;;;;;23.00;11.32;;;;;;;;;;5027691;28;20044;-62
2022/05/10 04:48:08;;;;;;;15.55;7.82;;;;;;;;;;5038056;28;20045;-61
2022/05/10 04:50:35;;;;;;;20.77;8.80;;;;;;;;;;5034632;28;20062;-61
2022/05/10 04:53:01;;;;;;;10.77;4.93;;;;;;;;;;5059210;28;20088;-61
2022/05/10 04:55:28;;;;;;;9.80;4.80;;;;;;;;;;5035986;28;20050;-62
2022/05/10 04:57:55;;;;;;;20.73;9.85;;;;;;;;;;5030703;28;20072;-61
2022/05/10 05:00:23;;;;;;;15.48;7.63;;;;;;;;;;5036690;28;20084;-62
2022/05/10 05:02:49;;;;;;;18.25;6.55;;;;;;;;;;5029194;28;20056;-61
2022/05/10 05:05:17;;;;;;;18.27;8.52;;;;;;;;;;5036260;28;20080;-61
2022/05/10 05:07:45;;;;;;;17.90;7.55;;;;;;;;;;5023668;28;20136;-61
2022/05/10 05:10:12;;;;;;;11.60;6.95;;;;;;;;;;5050988;28;20056;-61
2022/05/10 05:12:39;;;;;;;18.30;9.13;;;;;;;;;;5039665;28;20057;-63
2022/05/10 05:15:07;;;;;;;13.05;6.53;;;;;;;;;;5028956;28;20059;-61
2022/05/10 05:17:34;;;;;;;21.52;10.73;;;;;;;;;;5035431;28;20114;-63
2022/05/10 05:20:01;;;;;;;19.25;9.07;;;;;;;;;;5047935;28;20045;-61
2022/05/10 05:22:29;;;;;;;10.18;5.03;;;;;;;;;;5037184;28;20089;-63
2022/05/10 05:24:55;;;;;;;17.17;7.20;;;;;;;;;;5029121;28;20111;-63
2022/05/10 05:27:22;;;;;;;18.20;9.57;;;;;;;;;;5038679;28;20076;-62
2022/05/10 05:29:49;;;;;;;26.13;12.32;;;;;;;;;;5028763;28;20048;-61
2022/05/10 05:32:17;;;;;;;28.83;12.60;;;;;;;;;;5035134;28;20049;-61
2022/05/10 05:34:44;;;;;;;10.85;5.57;;;;;;;;;;5032244;28;20053;-61
2022/05/10 05:40:05;;;;;;;14.23;6.55;;;;;;;;;;4977564;28;20060;-61
2022/05/10 05:42:32;;;;;;;11.82;6.13;;;;;;;;;;5030440;28;20052;-61
2022/05/10 05:44:59;;;;;;;18.63;8.63;;;;;;;;;;5036382;28;20045;-61
2022/05/10 05:47:26;;;;;;;15.85;8.27;;;;;;;;;;5051317;28;20060;-61
2022/05/10 05:49:53;;;;;;;19.10;6.78;;;;;;;;;;5035697;28;20107;-61
2022/05/10 05:52:21;;;;;;;22.13;11.13;;;;;;;;;;5034161;28;20068;-62
2022/05/10 05:54:48;;;;;;;;;;;;;;;;;;5016770;28;20049;-61
2022/05/10 05:57:16;;;;;;;20.55;8.35;;;;;;;;;;5041628;28;19928;-61
2022/05/10 05:59:45;;;;;;;20.38;10.10;;;;;;;;;;5032492;28;20122;-61
2022/05/10 06:02:13;;;;;;;13.90;7.03;;;;;;;;;;5058707;28;20061;-62
2022/05/10 06:04:39;;;;;;;21.40;10.38;;;;;;;;;;5031217;28;20055;-62
2022/05/10 06:07:06;;;;;;;11.75;6.55;;;;;;;;;;5026026;28;20059;-62
2022/05/10 06:09:35;;;;;;;22.48;12.20;;;;;;;;;;5032516;28;20048;-60
2022/05/10 06:12:02;;;;;;;11.52;5.97;;;;;;;;;;5025799;28;20060;-62
2022/05/10 06:14:30;;;;;;;14.13;6.85;;;;;;;;;;5032787;28;20052;-62
2022/05/10 06:16:57;;;;;;;24.55;10.25;;;;;;;;;;5035826;28;20115;-62
2022/05/10 06:19:24;;;;;;;24.38;10.57;;;;;;;;;;5032718;28;20044;-62
2022/05/10 06:21:51;;;;;;;30.17;11.95;;;;;;;;;;5058861;28;20056;-63
2022/05/10 06:24:17;;;;;;;22.60;10.98;;;;;;;;;;5031749;28;20060;-61
2022/05/10 06:26:44;;;;;;;33.45;11.15;;;;;;;;;;5026522;28;20041;-61
2022/05/10 06:29:11;;;;;;;27.85;11.02;;;;;;;;;;5033795;28;20068;-61
2022/05/10 06:31:40;;;;;;;25.33;11.10;;;;;;;;;;5026508;28;20049;-61
2022/05/10 06:34:06;;;;;;;26.58;12.02;;;;;;;;;;5032052;28;20081;-62
2022/05/10 06:36:33;;;;;;;23.58;11.80;;;;;;;;;;5060663;28;20048;-61
2022/05/10 06:39:01;;;;;;;19.85;9.35;;;;;;;;;;5033283;28;20048;-62
2022/05/10 06:41:31;;;;;;;28.15;12.23;;;;;;;;;;5030971;28;20052;-63
2022/05/10 06:43:58;;;;;;;20.17;11.18;;;;;;;;;;5030913;28;20103;-61
2022/05/10 06:46:24;;;;;;;26.85;11.32;;;;;;;;;;5033404;28;20049;-62
2022/05/10 06:48:53;;;;;;;21.75;10.55;;;;;;;;;;5027593;28;20049;-62
2022/05/10 06:51:21;;;;;;;24.30;11.88;;;;;;;;;;5032732;28;20121;-61
2022/05/10 06:53:48;;;;;;;18.80;7.97;;;;;;;;;;5025598;28;20041;-61
2022/05/10 06:56:15;;;;;;;16.10;8.45;;;;;;;;;;5033037;28;20074;-62
2022/05/10 06:58:42;;;;;;;23.63;11.25;;;;;;;;;;5027063;28;20061;-64
2022/05/10 07:01:11;;;;;;;21.33;11.35;;;;;;;;;;5033325;28;20075;-64
2022/05/10 07:03:38;;;;;;;16.40;8.05;;;;;;;;;;5024807;28;20045;-64
2022/05/10 07:06:08;;;;;;;28.48;12.60;;;;;;;;;;5030195;28;20061;-64
2022/05/10 07:08:35;;;;;;;26.38;11.65;;;;;;;;;;5026407;28;20094;-63
2022/05/10 07:11:01;;;;;;;21.92;9.85;;;;;;;;;;5032452;28;20107;-61
2022/05/10 07:13:29;;;;;;;22.70;11.60;;;;;;;;;;5026169;28;20056;-62
2022/05/10 07:15:56;;;;;;;20.52;10.35;;;;;;;;;;5031486;28;20075;-61
2022/05/10 07:18:24;;;;;;;18.58;9.10;;;;;;;;;;5060292;28;20052;-62
2022/05/10 07:20:51;;;;;;;16.70;7.50;;;;;;;;;;5032189;28;20079;-62
2022/05/10 07:23:21;;;;;;;17.70;9.18;;;;;;;;;;5025966;28;20064;-63
2022/05/10 07:25:47;;;;;;;23.65;11.80;;;;;;;;;;5031312;28;20056;-61
2022/05/10 07:28:14;;;;;;;22.33;9.68;;;;;;;;;;5032065;28;20129;-62
2022/05/10 07:30:42;;;;;;;24.45;10.40;;;;;;;;;;5024743;28;20061;-62
2022/05/10 07:33:08;;;;;;;20.58;10.60;;;;;;;;;;5031502;28;20053;-63
2022/05/10 07:38:19;;;;;;;18.92;8.77;;;;;;;;;;5034108;28;20103;-62
2022/05/10 07:40:49;;;;;;;19.67;10.00;;;;;;;;;;5026071;28;20111;-61
2022/05/10 07:43:17;;;;;;;17.00;8.68;;;;;;;;;;5063546;28;20053;-64
2022/05/10 07:45:45;;;;;;;21.33;10.48;;;;;;;;;;5021328;28;20153;-62
2022/05/10 07:48:11;;;;;;;20.70;10.60;;;;;;;;;;5027198;28;20054;-61
2022/05/10 07:50:38;;;;;;;18.10;9.93;;;;;;;;;;5049606;28;20052;-62
2022/05/10 07:53:07;;;;;;;13.82;8.02;;;;;;;;;;5030321;28;20263;-62
2022/05/10 07:55:34;;;;;;;16.23;8.65;;;;;;;;;;5022617;28;20079;-63
2022/05/10 07:58:04;;;;;;;20.38;8.38;;;;;;;;;;5047733;28;20053;-61
2022/05/10 08:00:31;;;;;;;23.08;8.95;;;;;;;;;;5023253;28;20118;-61
2022/05/10 08:02:58;;;;;;;13.77;7.20;;;;;;;;;;5031044;28;20099;-61
2022/05/10 08:05:26;;;;;;;16.83;7.90;;;;;;;;;;5024655;28;20080;-61
2022/05/10 08:07:52;;;;;;;16.10;7.85;;;;;;;;;;5031106;28;20055;-61
2022/05/10 08:10:20;;;;;;;16.95;7.72;;;;;;;;;;5023150;28;20132;-62
2022/05/10 08:12:46;;;;;;;16.00;7.07;;;;;;;;;;5012100;28;20049;-62
2022/05/10 08:15:16;;;;;;;12.85;6.38;;;;;;;;;;5006830;28;20053;-61
2022/05/10 08:17:42;;;;;;;13.90;6.72;;;;;;;;;;4991395;28;20058;-61
2022/05/10 08:20:09;;;;;;;13.27;7.10;;;;;;;;;;5023873;28;20057;-64
2022/05/10 08:22:36;;;;;;;12.15;6.72;;;;;;;;;;5037082;28;20053;-63
2022/05/10 08:25:03;;;;;;;12.75;7.18;;;;;;;;;;5011174;28;20144;-62
2022/05/10 08:27:30;;;;;;;16.95;6.20;;;;;;;;;;5020919;28;20052;-62
2022/05/10 08:29:57;;;;;;;17.92;5.93;;;;;;;;;;5029849;28;20095;-61
2022/05/10 08:32:25;;;;;;;10.20;5.25;;;;;;;;;;5024638;28;20053;-62
2022/05/10 08:34:51;;;;;;;12.10;5.78;;;;;;;;;;5030483;28;20048;-62
2022/05/10 08:37:18;;;;;;;19.88;7.97;;;;;;;;;;5006904;28;20049;-61
2022/05/10 08:39:45;;;;;;;14.35;7.57;;;;;;;;;;4995871;28;20074;-61
2022/05/10 08:42:16;;;;;;;11.73;6.15;;;;;;;;;;4999760;28;20045;-62
2022/05/10 08:44:44;;;;;;;11.38;5.72;;;;;;;;;;5047307;28;20058;-61
2022/05/10 08:47:12;;;;;;;15.03;6.10;;;;;;;;;;5009670;28;20045;-65
2022/05/10 08:49:45;;;;;;;10.07;5.32;;;;;;;;;;5014602;28;20304;-64
2022/05/10 08:52:13;;;;;;;8.73;4.68;;;;;;;;;;5013996;28;20134;-64
2022/05/10 08:54:41;;;;;;;11.50;5.68;;;;;;;;;;5034643;28;20045;-62
2022/05/10 08:57:12;;;;;;;11.07;5.03;;;;;;;;;;5016905;28;20054;-62
2022/05/10 08:59:43;;;;;;;10.60;4.90;;;;;;;;;;5026945;28;20076;-64
2022/05/10 09:02:12;;;;;;;11.30;4.60;;;;;;;;;;5008174;28;20127;-63
2022/05/10 09:04:46;;;;;;;16.13;5.68;;;;;;;;;;5006197;28;20061;-61
2022/05/10 09:07:16;;;;;;;11.50;4.97;;;;;;;;;;4992245;28;20068;-64
2022/05/10 09:09:50;;;;;;;14.25;5.20;;;;;;;;;;5004712;28;20045;-62
2022/05/10 09:12:20;;;;;;;11.40;4.45;;;;;;;;;;5026775;28;20076;-63
2022/05/10 09:14:48;;;;;;;12.00;4.80;;;;;;;;;;5042103;28;20104;-62
2022/05/10 09:17:16;;;;;;;13.48;5.20;;;;;;;;;;5046834;28;20131;-64
2022/05/10 09:19:44;;;;;;;12.65;4.47;;;;;;;;;;5024046;28;20049;-62
2022/05/10 09:22:17;;;;;;;9.05;4.80;;;;;;;;;;5017072;28;20053;-62
2022/05/10 09:24:48;;;;;;;9.55;4.88;;;;;;;;;;5011450;28;20053;-62
2022/05/10 09:27:15;;;;;;;11.30;4.38;;;;;;;;;;5027306;28;20099;-62
2022/05/10 09:29:44;;;;;;;8.13;4.05;;;;;;;;;;5010967;28;20095;-62
2022/05/10 09:34:58;;;;;;;9.73;3.92;;;;;;;;;;5023911;28;20058;-62
2022/05/10 09:37:28;;;;;;;10.82;4.55;;;;;;;;;;5029863;28;20153;-62
2022/05/10 09:40:10;;;;;;;10.63;4.30;;;;;;;;;;5025103;28;20045;-62
2022/05/10 09:42:38;;;;;;;11.35;4.30;;;;;;;;;;5030647;28;20057;-61
2022/05/10 09:45:06;;;;;;;12.85;4.10;;;;;;;;;;5023946;28;20065;-61
2022/05/10 09:47:34;;;;;;;14.10;4.40;;;;;;;;;;5010287;28;20049;-60
2022/05/10 09:50:15;;;;;;;15.75;4.88;;;;;;;;;;5007065;28;20056;-62
2022/05/10 09:52:43;;;;;;;10.82;4.78;;;;;;;;;;5011423;28;20053;-63
2022/05/10 09:55:13;;;;;;;11.07;4.68;;;;;;;;;;5007727;28;20160;-61
2022/05/10 09:57:40;;;;;;;9.95;4.47;;;;;;;;;;5029485;28;20053;-63
2022/05/10 10:00:12;;;;;;;7.82;4.13;;;;;;;;;;5007524;28;20076;-61
2022/05/10 10:02:40;;;;;;;9.23;3.72;;;;;;;;;;5003346;28;20061;-61
2022/05/10 10:05:21;;;;;;;7.55;3.85;;;;;;;;;;5003567;28;20060;-61
2022/05/10 10:07:50;;;;;;;14.25;4.03;;;;;;;;;;5042381;28;20181;-61
2022/05/10 10:10:24;;;;;;;11.40;4.68;;;;;;;;;;5003032;28;20064;-61
2022/05/10 10:12:51;;;;;;;8.55;3.80;;;;;;;;;;5045995;28;20068;-61
2022/05/10 10:15:21;;;;;;;11.88;4.10;;;;;;;;;;5036495;28;20042;-61
2022/05/10 10:17:50;;;;;;;9.90;4.57;;;;;;;;;;4993367;28;20088;-61
2022/05/10 10:20:26;;;;;;;13.75;4.10;;;;;;;;;;4991248;28;20046;-61
2022/05/10 10:22:55;;;;;;;9.70;3.63;;;;;;;;;;5014626;28;20052;-61
2022/05/10 10:25:25;;;;;;;11.35;3.92;;;;;;;;;;5008653;28;20073;-63
2022/05/10 10:27:57;;;;;;;8.15;3.75;;;;;;;;;;5013071;28;20054;-64
2022/05/10 10:30:27;;;;;;;6.95;3.50;;;;;;;;;;5009628;28;20049;-61
2022/05/10 10:32:56;;;;;;;9.52;3.45;;;;;;;;;;5044386;28;20073;-64
2022/05/10 10:35:28;;;;;;;9.23;3.70;;;;;;;;;;5012630;28;20053;-61
2022/05/10 10:37:59;;;;;;;15.25;4.00;;;;;;;;;;5006130;28;20061;-61
2022/05/10 10:40:31;;;;;;;6.28;3.10;;;;;;;;;;5012405;28;20049;-61
2022/05/10 10:43:02;;;;;;;15.70;3.88;;;;;;;;;;5005931;28;20045;-59
2022/05/10 10:45:34;;;;;;;9.75;3.53;;;;;;;;;;5011840;28;20077;-62
2022/05/10 10:48:05;;;;;;;9.88;3.78;;;;;;;;;;5038016;28;20049;-62
2022/05/10 10:50:33;;;;;;;6.47;3.08;;;;;;;;;;5044535;28;20080;-61
2022/05/10 10:52:59;;;;;;;;;;;;;;;;;;5006454;28;20144;-62
2022/05/10 10:55:36;;;;;;;9.15;3.00;;;;;;;;;;5011938;28;19936;-61
2022/05/10 10:58:08;;;;;;;11.05;3.60;;;;;;;;;;5005801;28;20062;-62
2022/05/10 11:00:38;;;;;;;9.00;3.22;;;;;;;;;;5011531;28;20057;-61
2022/05/10 11:03:08;;;;;;;16.00;5.38;;;;;;;;;;5009282;28;20151;-61
2022/05/10 11:05:46;;;;;;;13.77;4.68;;;;;;;;;;5044601;28;20119;-62
2022/05/10 11:08:18;;;;;;;13.30;4.03;;;;;;;;;;5014348;28;20069;-61
2022/05/10 11:10:49;;;;;;;12.65;4.38;;;;;;;;;;5027746;28;20053;-62
2022/05/10 11:13:22;;;;;;;12.10;3.78;;;;;;;;;;5016165;28;20088;-61
2022/05/10 11:15:55;;;;;;;11.57;3.72;;;;;;;;;;5044363;28;20085;-61
2022/05/10 11:18:40;;;;;;;8.13;2.90;;;;;;;;;;5011067;28;20188;-62
2022/05/10 11:21:18;;;;;;;11.38;3.60;;;;;;;;;;5028432;28;20068;-62
2022/05/10 11:23:50;;;;;;;9.00;4.10;;;;;;;;;;5015176;28;20041;-63
2022/05/10 11:26:25;;;;;;;7.90;3.60;;;;;;;;;;5027841;28;20053;-61
2022/05/10 11:29:07;;;;;;;9.02;3.33;;;;;;;;;;5038430;28;20064;-61
2022/05/10 11:31:38;;;;;;;8.15;3.13;;;;;;;;;;5007793;28;20140;-61
2022/05/10 11:34:10;;;;;;;8.68;4.03;;;;;;;;;;5007656;28;20046;-61
2022/05/10 11:36:39;;;;;;;11.98;3.40;;;;;;;;;;5012423;28;20061;-61
2022/05/10 11:39:28;;;;;;;9.60;3.80;;;;;;;;;;5006211;28;20061;-62
2022/05/10 11:41:54;;;;;;;;;;;;;;;;;;5011540;28;20049;-61
2022/05/10 11:44:35;;;;;;;10.38;3.72;;;;;;;;;;5006699;28;19964;-61
2022/05/10 11:47:11;;;;;;;10.23;3.47;;;;;;;;;;5002313;28;20060;-61
2022/05/10 11:50:09;;;;;;;11.48;3.60;;;;;;;;;;5037753;28;20080;-62
2022/05/10 11:52:55;;;;;;;5.55;3.05;;;;;;;;;;4913293;29;20052;-64
2022/05/10 11:55:23;;;;;;;9.80;3.20;;;;;;;;;;4994729;28;20057;-65
2022/05/10 11:57:51;;;;;;;14.57;3.38;;;;;;;;;;5051138;28;20049;-64
2022/05/10 12:00:37;;;;;;;9.20;4.30;;;;;;;;;;5014255;28;20057;-63
2022/05/10 12:03:05;;;;;;;8.15;3.55;;;;;;;;;;5024791;28;20092;-64
2022/05/10 12:05:33;;;;;;;11.02;3.33;;;;;;;;;;5058163;28;20104;-63
2022/05/10 12:08:01;;;;;;;6.65;3.38;;;;;;;;;;5043945;28;20045;-64
2022/05/10 12:10:28;;;;;;;;;;;;;;;;;;5033733;28;20076;-62
2022/05/10 12:12:59;;;;;;;13.05;4.28;;;;;;;;;;5030345;28;19924;-63
2022/05/10 12:21:21;;;;;;;12.52;3.40;;;;;;;;;;5057603;28;20363;-63
2022/05/10 12:23:48;;;;;;;;;;;;;;;;;;5077876;28;20122;-62
2022/05/10 12:26:29;;;;;;;9.80;3.45;;;;;;;;;;5024206;28;19925;-63
2022/05/10 12:28:56;;;;;;;13.50;3.90;;;;;;;;;;5029787;28;20045;-62
2022/05/10 12:31:46;;;;;;;9.30;3.20;;;;;;;;;;5016457;28;20041;-62
2022/05/10 12:34:32;;;;;;;8.55;3.03;;;;;;;;;;5062519;28;20049;-62
2022/05/10 12:37:30;;;;;;;7.20;2.83;;;;;;;;;;5023552;28;20057;-62
2022/05/10 12:39:58;;;;;;;7.40;3.05;;;;;;;;;;5029805;28;20083;-62
2022/05/10 12:42:27;;;;;;;9.55;3.25;;;;;;;;;;5041613;28;20107;-64
2022/05/10 12:45:03;;;;;;;14.88;3.40;;;;;;;;;;5030477;28;20140;-62
2022/05/10 12:47:38;;;;;;;14.65;3.83;;;;;;;;;;5024503;28;20053;-63
2022/05/10 12:50:14;;;;;;;12.80;3.55;;;;;;;;;;5063213;28;20053;-63
2022/05/10 12:52:47;;;;;;;8.85;3.45;;;;;;;;;;5024042;28;20124;-63
2022/05/10 12:55:18;;;;;;;10.27;3.17;;;;;;;;;;5030092;28;20144;-63
2022/05/10 12:57:46;;;;;;;7.70;3.58;;;;;;;;;;5013360;28;20053;-63
2022/05/10 13:00:14;;;;;;;;;;;;;;;;;;5044977;28;20057;-62
2022/05/10 13:02:41;;;;;;;10.85;3.45;;;;;;;;;;5041796;28;20015;-63
2022/05/10 13:05:15;;;;;;;9.40;3.37;;;;;;;;;;5014250;28;20044;-64
2022/05/10 13:07:50;;;;;;;9.45;3.10;;;;;;;;;;5051857;28;20048;-63
2022/05/10 13:10:20;;;;;;;12.57;3.13;;;;;;;;;;5027017;28;20056;-63
2022/05/10 13:12:49;;;;;;;9.18;3.92;;;;;;;;;;5013087;28;20138;-64
2022/05/10 13:15:17;;;;;;;16.83;4.75;;;;;;;;;;5029606;28;20061;-63
2022/05/10 13:17:47;;;;;;;10.88;4.00;;;;;;;;;;5023315;28;20052;-62
2022/05/10 13:20:16;;;;;;;7.35;3.65;;;;;;;;;;5028147;28;20051;-64
2022/05/10 13:22:50;;;;;;;14.88;4.05;;;;;;;;;;5018164;28;20033;-65
2022/05/10 13:25:25;;;;;;;11.45;3.90;;;;;;;;;;5036619;28;20045;-62
2022/05/10 13:27:52;;;;;;;10.63;4.50;;;;;;;;;;5043130;28;20057;-63
2022/05/10 13:30:20;;;;;;;9.73;4.57;;;;;;;;;;5034218;28;20071;-61
2022/05/10 13:32:47;;;;;;;;;;;;;;;;;;5027833;28;20073;-62
2022/05/10 13:35:23;;;;;;;15.40;5.57;;;;;;;;;;5033122;28;20020;-62
2022/05/10 13:37:53;;;;;;;11.98;5.05;;;;;;;;;;5028224;28;20144;-62
2022/05/10 13:40:23;;;;;;;14.77;4.93;;;;;;;;;;5052186;28;20057;-61
2022/05/10 13:42:50;;;;;;;9.48;4.75;;;;;;;;;;5034928;28;20095;-62
2022/05/10 13:45:20;;;;;;;13.05;4.88;;;;;;;;;;5026927;28;20134;-62
2022/05/10 13:47:49;;;;;;;11.75;4.28;;;;;;;;;;5033171;28;20139;-61
2022/05/10 13:50:23;;;;;;;7.05;3.70;;;;;;;;;;5026235;28;20060;-62
2022/05/10 13:52:50;;;;;;;10.98;3.83;;;;;;;;;;5033346;28;20057;-63
2022/05/10 13:55:19;;;;;;;11.68;3.35;;;;;;;;;;5026035;28;20111;-62
2022/05/10 13:57:45;;;;;;;;;;;;;;;;;;5049876;28;20048;-62
2022/05/10 14:00:18;;;;;;;14.98;3.95;;;;;;;;;;5027134;28;19924;-61
2022/05/10 14:02:44;;;;;;;7.50;3.42;;;;;;;;;;5032282;28;20084;-65
2022/05/10 14:05:16;;;;;;;16.02;5.20;;;;;;;;;;5024912;28;20051;-62
2022/05/10 14:07:47;;;;;;;9.70;3.83;;;;;;;;;;5032745;28;20061;-61
2022/05/10 14:10:16;;;;;;;11.75;5.05;;;;;;;;;;5026198;28;20099;-63
2022/05/10 14:12:46;;;;;;;10.13;5.15;;;;;;;;;;5033655;28;20048;-62
2022/05/10 14:15:20;;;;;;;12.98;4.68;;;;;;;;;;5025811;28;20132;-63
2022/05/10 14:17:50;;;;;;;9.43;4.10;;;;;;;;;;5032551;28;20056;-62
2022/05/10 14:20:20;;;;;;;10.35;4.50;;;;;;;;;;5026361;28;20076;-62
2022/05/10 14:22:48;;;;;;;9.60;3.88;;;;;;;;;;5032829;28;20079;-61
2022/05/10 14:25:15;;;;;;;;;;;;;;;;;;5029731;28;20075;-62
2022/05/10 14:27:53;;;;;;;8.27;3.35;;;;;;;;;;5065455;28;19982;-62
2022/05/10 14:30:21;;;;;;;11.85;4.03;;;;;;;;;;5023276;28;20095;-62
2022/05/10 14:32:48;;;;;;;10.07;5.03;;;;;;;;;;5030914;28;20049;-62
2022/05/10 14:35:24;;;;;;;14.63;5.65;;;;;;;;;;5025906;28;20065;-62
2022/05/10 14:37:53;;;;;;;9.07;4.35;;;;;;;;;;5031934;28;20123;-62
2022/05/10 14:40:25;;;;;;;9.88;3.90;;;;;;;;;;5026173;28;20060;-62
2022/05/10 14:42:58;;;;;;;10.63;4.60;;;;;;;;;;5033008;28;20115;-61
2022/05/10 14:45:39;;;;;;;10.82;4.85;;;;;;;;;;5025245;28;20052;-62
2022/05/10 14:48:26;;;;;;;8.07;3.33;;;;;;;;;;5032204;28;20055;-61
2022/05/10 14:50:55;;;;;;;11.15;3.80;;;;;;;;;;5026289;28;20057;-62
2022/05/10 14:53:25;;;;;;;8.10;3.35;;;;;;;;;;5032376;28;20053;-61
2022/05/10 14:56:12;;;;;;;10.38;3.67;;;;;;;;;;5026031;28;20076;-62
2022/05/10 14:58:40;;;;;;;9.87;4.40;;;;;;;;;;5029561;28;20063;-62
2022/05/10 15:01:07;;;;;;;;;;;;;;;;;;5024425;28;20172;-62
2022/05/10 15:03:34;;;;;;;8.85;3.90;;;;;;;;;;5031584;28;19931;-62
2022/05/10 15:06:01;;;;;;;8.02;3.70;;;;;;;;;;5032211;28;20049;-61
2022/05/10 15:08:29;;;;;;;8.13;3.50;;;;;;;;;;5026083;28;20122;-61
2022/05/10 15:10:59;;;;;;;8.93;3.63;;;;;;;;;;5031966;28;20055;-62
2022/05/10 15:13:26;;;;;;;9.80;3.40;;;;;;;;;;5025637;28;20057;-62
2022/05/10 15:15:55;;;;;;;7.85;3.33;;;;;;;;;;5032083;28;20292;-63